Time;durP1;ratioP1;P1;durP2;ratioP2;P2;SDS_P1;SDS_P2;PMS_P1;PMS_P2;Temp;Humidity;BMP_temperature;BMP_pressure;BME280_temperature;BME280_humidity;BME280_pressure;Samples;Min_cycle;Max_cycle;Signal;HPM_P1;HPM_P2
2022/01/26 09:19:14;;;;;;;42.13;21.80;;;;;;;-1.39;90.76;101223.97;5017725;28;20594;-83
2022/01/26 09:21:39;;;;;;;39.30;22.40;;;;;;;-1.57;91.11;101220.34;5018850;28;20279;-83
2022/01/26 09:24:05;;;;;;;33.67;21.10;;;;;;;-1.67;91.57;101233.97;5024557;27;20227;-83
2022/01/26 09:26:30;;;;;;;28.77;19.17;;;;;;;-1.79;91.96;101249.25;5084010;28;20713;-81
2022/01/26 09:28:56;;;;;;;27.63;17.63;;;;;;;-1.84;92.26;101248.31;5080981;28;20458;-83
2022/01/26 09:31:21;;;;;;;40.87;23.30;;;;;;;-1.87;92.25;101256.88;5079422;28;20508;-80
2022/01/26 09:33:47;;;;;;;43.93;21.10;;;;;;;-1.93;92.47;101246.47;5082164;28;20215;-83
2022/01/26 09:36:12;;;;;;;38.50;18.67;;;;;;;-1.93;92.54;101261.06;5081033;28;20192;-82
2022/01/26 09:38:39;;;;;;;37.10;21.07;;;;;;;-1.94;92.58;101247.34;5081502;28;20224;-84
2022/01/26 09:41:04;;;;;;;39.28;20.88;;;;;;;-1.95;92.36;101247.31;5083616;28;20847;-81
2022/01/26 09:43:31;;;;;;;31.10;20.40;;;;;;;-1.94;92.46;101243.91;5083501;28;20200;-80
2022/01/26 09:45:57;;;;;;;31.70;18.30;;;;;;;-1.99;92.28;101264.44;5084868;28;20192;-82
2022/01/26 09:48:23;;;;;;;38.40;21.87;;;;;;;-2.01;92.27;101290.16;5083395;28;20908;-81
2022/01/26 09:50:54;;;;;;;46.03;23.17;;;;;;;-2.01;92.59;101284.13;5081815;28;20268;-82
2022/01/26 09:53:26;;;;;;;40.90;21.23;;;;;;;-2.05;92.38;101270.38;5081427;28;20211;-84
2022/01/26 09:55:52;;;;;;;39.35;21.88;;;;;;;-2.04;92.28;101284.97;5081626;28;20219;-83
2022/01/26 09:58:20;;;;;;;38.60;21.43;;;;;;;-2.01;92.18;101297.00;5080437;28;20193;-83
2022/01/26 10:00:46;;;;;;;38.67;22.63;;;;;;;-2.00;92.26;101283.28;5077011;28;20689;-81
2022/01/26 10:03:11;;;;;;;36.30;21.70;;;;;;;-2.01;92.67;101266.97;5079518;28;20193;-80
2022/01/26 10:05:44;;;;;;;39.50;22.10;;;;;;;-1.99;92.54;101248.97;5079687;28;21186;-83
2022/01/26 10:19:09;;;;;;;31.20;21.35;;;;;;;-1.88;92.14;101213.06;5074243;28;20220;-81
2022/01/26 10:21:49;;;;;;;34.67;21.73;;;;;;;-1.87;92.14;101215.66;5066362;28;20244;-80
2022/01/26 10:24:15;;;;;;;41.38;21.77;;;;;;;-1.85;91.98;101211.41;5067190;28;20208;-82
2022/01/26 10:26:48;;;;;;;30.10;18.02;;;;;;;-1.81;92.17;101194.25;5065342;28;20564;-82
2022/01/26 10:29:15;;;;;;;38.67;21.05;;;;;;;-1.79;91.74;101190.84;5065779;28;20200;-80
2022/01/26 10:31:41;;;;;;;43.90;24.33;;;;;;;-1.74;92.10;101200.38;5064703;28;20473;-80
2022/01/26 10:34:22;;;;;;;36.42;21.63;;;;;;;-1.72;92.16;101202.13;5066675;28;20208;-82
2022/01/26 10:36:51;;;;;;;40.70;21.65;;;;;;;-1.69;92.25;101189.28;5066453;28;20254;-83
2022/01/26 10:41:50;;;;;;;32.80;21.30;;;;;;;-1.61;92.15;101203.09;5065837;28;20197;-80
2022/01/26 10:44:17;;;;;;;37.13;20.77;;;;;;;-1.58;91.80;101213.44;5065456;28;20647;-80
2022/01/26 10:46:45;;;;;;;30.52;18.27;;;;;;;-1.53;92.30;101197.19;5065142;28;20217;-81
2022/01/26 10:49:43;;;;;;;33.72;18.80;;;;;;;-1.48;92.02;101185.22;5065275;28;20220;-81
2022/01/26 10:52:19;;;;;;;26.90;15.45;;;;;;;-1.42;92.20;101193.00;5063488;28;20208;-82
2022/01/26 10:54:45;;;;;;;31.45;18.80;;;;;;;-1.39;91.48;101205.94;5063061;28;20236;-81
2022/01/26 10:57:13;;;;;;;41.42;20.00;;;;;;;-1.38;91.67;101187.03;5070186;28;20205;-81
2022/01/26 10:59:42;;;;;;;41.17;24.95;;;;;;;-1.33;91.31;101193.94;5070158;28;20506;-82
2022/01/26 11:02:09;;;;;;;45.50;23.77;;;;;;;-1.33;91.50;101193.09;5069987;28;20219;-81
2022/01/26 11:04:38;;;;;;;36.55;21.00;;;;;;;-1.30;91.40;101182.81;5068830;28;20201;-82
2022/01/26 11:07:05;;;;;;;36.28;20.73;;;;;;;-1.25;91.36;101170.84;5070112;28;20217;-80
2022/01/26 11:09:34;;;;;;;38.70;20.33;;;;;;;-1.20;91.17;101179.47;5064704;28;20201;-82
2022/01/26 11:12:09;;;;;;;37.90;21.52;;;;;;;-1.19;91.24;101177.75;5064644;28;20205;-80
2022/01/26 11:14:45;;;;;;;34.72;21.02;;;;;;;-1.15;91.01;101171.81;5063308;28;20254;-80
2022/01/26 11:17:29;;;;;;;36.58;19.13;;;;;;;-1.14;90.94;101173.50;5063071;28;20236;-79
2022/01/26 11:19:57;;;;;;;43.25;23.52;;;;;;;-1.12;90.99;101174.41;5063627;28;20239;-79
2022/01/26 11:22:29;;;;;;;41.65;23.60;;;;;;;-1.13;90.98;101178.69;5062519;28;20205;-80
2022/01/26 11:25:06;;;;;;;44.47;22.55;;;;;;;-1.13;90.86;101170.97;5063792;28;20200;-81
2022/01/26 11:27:37;;;;;;;40.80;23.90;;;;;;;-1.09;90.85;101169.28;5063050;28;20271;-81
2022/01/26 11:30:32;;;;;;;52.22;30.35;;;;;;;-1.04;90.68;101171.91;5062034;28;20971;-79
2022/01/26 11:33:04;;;;;;;46.42;31.98;;;;;;;-0.94;90.42;101173.72;5058791;28;21289;-80
2022/01/26 11:35:35;;;;;;;42.08;23.80;;;;;;;-1.02;90.75;101183.09;5061290;28;20204;-81
2022/01/26 11:38:17;;;;;;;38.75;23.70;;;;;;;-1.04;90.84;101183.06;5062207;28;20211;-81
2022/01/26 11:46:33;;;;;;;36.75;22.10;;;;;;;-1.05;90.17;101172.72;5062291;28;20205;-80
2022/01/26 11:49:11;;;;;;;40.30;22.75;;;;;;;-1.03;90.22;101176.19;5061169;28;20208;-80
2022/01/26 11:51:53;;;;;;;35.55;20.35;;;;;;;-1.04;90.13;101189.94;5061421;28;20228;-80
2022/01/26 11:54:28;;;;;;;37.33;20.90;;;;;;;-1.06;89.74;101202.81;5061398;28;20216;-79
2022/01/26 11:56:57;;;;;;;45.03;23.55;;;;;;;-1.14;89.85;101214.78;5060976;28;20196;-81
2022/01/26 11:59:24;;;;;;;34.63;20.20;;;;;;;-1.16;89.81;101204.47;5060427;28;20239;-80
2022/01/26 12:01:58;;;;;;;26.48;19.90;;;;;;;-1.15;89.50;101187.28;5064113;28;20204;-80
2022/01/26 12:04:25;;;;;;;41.17;23.42;;;;;;;-1.14;89.97;101186.41;5064763;28;20216;-79
2022/01/26 12:06:58;;;;;;;36.55;22.80;;;;;;;-1.12;89.39;101175.25;5061544;28;20312;-80
2022/01/26 12:09:24;;;;;;;42.30;23.20;;;;;;;-1.09;89.72;101173.56;5060723;28;20216;-80
2022/01/26 12:11:55;;;;;;;38.80;23.17;;;;;;;-1.05;89.47;101183.03;5061820;28;20603;-80
2022/01/26 12:14:22;;;;;;;31.55;19.60;;;;;;;-1.07;89.05;101193.38;5059095;28;20451;-80
2022/01/26 12:16:50;;;;;;;34.58;20.15;;;;;;;-1.12;89.25;101202.75;5059586;28;20193;-80
2022/01/26 12:35:29;;;;;;;35.45;21.77;;;;;;;-1.06;88.72;101218.28;5060933;28;20324;-81
2022/01/26 12:38:06;;;;;;;31.92;20.55;;;;;;;-1.09;88.83;101210.53;5061786;28;20201;-80
2022/01/26 12:43:39;;;;;;;33.00;18.35;;;;;;;-1.00;88.57;101194.28;5062878;28;20196;-80
2022/01/26 12:46:07;;;;;;;37.13;23.83;;;;;;;-0.98;88.28;101192.56;5060969;28;20216;-80
2022/01/26 12:48:34;;;;;;;34.10;20.08;;;;;;;-1.00;88.18;101186.53;5061826;28;20224;-81
2022/01/26 12:51:02;;;;;;;38.97;20.50;;;;;;;-0.99;87.73;101172.81;5063167;28;20248;-80
2022/01/26 12:53:29;;;;;;;35.17;19.15;;;;;;;-0.95;87.88;101174.53;5068850;28;20243;-80
2022/01/26 12:56:05;;;;;;;39.70;20.27;;;;;;;-0.90;87.47;101183.19;5059059;28;20197;-81
2022/01/26 12:58:33;;;;;;;36.17;20.00;;;;;;;-0.91;87.21;101172.00;5061079;28;20196;-82
2022/01/26 13:01:17;;;;;;;37.40;20.08;;;;;;;-0.91;87.17;101177.19;5063467;28;20477;-80
2022/01/26 13:03:43;;;;;;;41.28;22.60;;;;;;;-0.92;87.14;101180.63;5063952;28;20232;-80
2022/01/26 13:06:14;;;;;;;32.05;18.45;;;;;;;-0.94;87.29;101171.13;5062081;28;20212;-80
2022/01/26 13:08:54;;;;;;;31.67;18.73;;;;;;;-0.97;87.10;101171.97;5062137;28;20227;-80
2022/01/26 13:11:24;;;;;;;31.15;18.27;;;;;;;-0.93;87.24;101180.59;5060797;28;20229;-80
2022/01/26 13:14:01;;;;;;;35.45;18.92;;;;;;;-0.94;87.21;101189.19;5062796;28;20587;-81
2022/01/26 13:16:33;;;;;;;27.17;18.70;;;;;;;-1.00;86.88;101190.00;5062753;28;20216;-82
2022/01/26 13:24:50;;;;;;;31.48;19.65;;;;;;;-0.95;86.38;101175.41;5062178;28;20192;-80
2022/01/26 13:30:04;;;;;;;37.22;18.63;;;;;;;-1.03;86.54;101178.78;5060703;28;20227;-79
2022/01/26 13:32:59;;;;;;;35.78;24.40;;;;;;;-0.99;86.47;101168.50;5058183;28;20474;-80
2022/01/26 13:40:27;;;;;;;30.20;19.37;;;;;;;-1.01;86.72;101156.44;5060562;28;20225;-80
2022/01/26 13:48:33;;;;;;;43.92;20.38;;;;;;;-0.97;85.17;101140.16;5061566;28;20232;-81
2022/01/26 13:53:53;;;;;;;64.85;43.60;;;;;;;-0.86;85.20;101141.09;5061665;28;20255;-80
2022/01/26 13:56:55;;;;;;;30.23;19.05;;;;;;;-0.79;85.06;101153.19;5065721;28;20246;-80
2022/01/26 13:59:28;;;;;;;40.17;22.02;;;;;;;-0.78;84.65;101162.66;5064788;28;20490;-80
2022/01/26 14:01:53;;;;;;;43.30;25.98;;;;;;;-0.71;85.04;101155.81;5063372;28;20525;-80
2022/01/26 14:04:19;;;;;;;38.00;21.87;;;;;;;-0.77;84.55;101154.06;5064796;28;20302;-80
2022/01/26 14:06:46;;;;;;;31.08;18.73;;;;;;;-0.90;84.75;101158.25;5064094;28;20804;-80
2022/01/26 14:09:13;;;;;;;36.00;19.73;;;;;;;-0.96;85.06;101162.50;5062709;28;20680;-80
2022/01/26 14:11:38;;;;;;;31.13;19.77;;;;;;;-1.00;85.27;101160.75;5065037;28;20228;-81
2022/01/26 14:14:04;;;;;;;27.40;18.10;;;;;;;-0.98;85.04;101151.31;5064445;28;20204;-80
2022/01/26 14:16:37;;;;;;;27.47;16.50;;;;;;;-0.94;85.00;101151.34;5063777;28;20266;-80
2022/01/26 14:26:50;;;;;;;27.38;18.80;;;;;;;-0.79;84.36;101163.50;5064153;28;20223;-80
2022/01/26 14:29:32;;;;;;;30.85;18.65;;;;;;;-0.78;83.95;101160.09;5063961;28;20901;-80
2022/01/26 14:32:13;;;;;;;38.03;23.75;;;;;;;-0.75;83.72;101167.00;5043207;28;20528;-80
2022/01/26 15:29:58;;;;;;;30.95;16.85;;;;;;;-1.24;84.86;101193.22;5041135;28;20221;-79
2022/01/26 15:34:08;;;;;;;36.75;20.23;;;;;;;-1.26;84.52;101209.50;5040108;28;20312;-79
2022/01/26 15:50:20;;;;;;;33.13;16.38;;;;;;;-1.38;85.04;101213.69;5040125;28;20308;-79
2022/01/26 15:53:03;;;;;;;28.38;16.05;;;;;;;-1.36;85.04;101213.69;5040668;28;20212;-79
2022/01/26 15:58:19;;;;;;;34.35;17.63;;;;;;;-1.39;84.88;101208.50;5040706;28;20347;-79
2022/01/26 16:06:46;;;;;;;31.02;16.75;;;;;;;-1.44;84.82;101215.31;5040796;28;20253;-80
2022/01/26 16:38:57;;;;;;;37.30;18.88;;;;;;;-1.29;85.36;101230.09;4969147;28;20212;-80
2022/01/26 16:52:34;;;;;;;33.45;16.85;;;;;;;-1.40;84.95;101214.53;4968748;28;20204;-80
2022/01/26 17:11:09;;;;;;;34.55;21.02;;;;;;;-1.43;85.20;101214.47;4969525;28;20210;-80
2022/01/26 18:17:18;;;;;;;37.25;20.17;;;;;;;-1.44;85.76;101182.66;4971406;28;20294;-81
2022/01/26 18:46:56;;;;;;;32.53;20.52;;;;;;;-1.64;86.24;101205.66;4971144;28;20216;-79
2022/01/26 18:49:23;;;;;;;35.70;21.65;;;;;;;-1.62;86.46;101198.81;4968947;28;20192;-80
2022/01/26 18:51:55;;;;;;;36.53;20.50;;;;;;;-1.59;86.39;101203.13;4970254;28;20208;-78
2022/01/26 18:54:24;;;;;;;36.92;19.55;;;;;;;-1.58;86.22;101202.28;4971321;28;20290;-78
2022/01/26 18:56:51;;;;;;;36.70;19.05;;;;;;;-1.61;86.66;101208.25;4970629;28;20219;-79
2022/01/26 18:59:22;;;;;;;32.88;21.52;;;;;;;-1.60;86.42;101209.13;4971908;28;20253;-79
2022/01/26 19:01:48;;;;;;;42.97;23.15;;;;;;;-1.59;86.58;101203.13;4971758;28;20495;-79
2022/01/26 19:04:13;;;;;;;46.72;23.77;;;;;;;-1.63;86.90;101202.22;4968595;28;20204;-79
2022/01/26 19:06:41;;;;;;;32.03;19.30;;;;;;;-1.63;87.13;101197.06;4969774;28;20231;-80
2022/01/26 19:09:07;;;;;;;30.90;21.13;;;;;;;-1.59;87.07;101190.25;4971045;28;20630;-79
2022/01/26 19:11:33;;;;;;;31.60;18.80;;;;;;;-1.62;86.88;101183.34;4970200;28;20333;-79
2022/01/26 19:14:00;;;;;;;35.63;17.50;;;;;;;-1.62;86.91;101179.88;4970894;28;20545;-79
2022/01/26 19:16:44;;;;;;;47.80;20.88;;;;;;;-1.61;87.09;101177.34;4971429;28;20470;-78
2022/01/26 19:24:47;;;;;;;34.35;18.95;;;;;;;-1.66;86.62;101170.41;4970663;28;20244;-78
2022/01/26 19:27:44;;;;;;;44.42;21.92;;;;;;;-1.64;87.00;101168.72;4969599;28;20228;-79
2022/01/26 19:41:57;;;;;;;38.25;18.85;;;;;;;-1.57;86.88;101186.84;4976948;28;20265;-78
2022/01/26 19:44:01;;;;;;;37.70;17.85;;;;;;;-1.63;87.09;101204.78;4975458;28;20200;-78
2022/01/26 19:54:27;;;;;;;32.50;18.42;;;;;;;-1.71;87.04;101200.41;4974814;28;20211;-78
2022/01/26 19:56:53;;;;;;;37.80;19.80;;;;;;;-1.71;87.14;101190.94;4975297;28;20621;-78
2022/01/26 19:59:18;;;;;;;43.07;18.67;;;;;;;-1.71;87.16;101193.53;4973981;28;20215;-78
2022/01/26 20:01:44;;;;;;;38.95;22.77;;;;;;;-1.68;86.97;101185.84;4974014;28;21030;-78
2022/01/26 20:04:10;;;;;;;38.37;23.33;;;;;;;-1.68;87.05;101188.41;4975882;28;20262;-78
2022/01/26 20:06:36;;;;;;;37.50;18.70;;;;;;;-1.66;86.95;101189.31;4975310;28;20467;-78
2022/01/26 20:09:12;;;;;;;31.23;19.02;;;;;;;-1.66;86.95;101178.13;4975859;28;20223;-78
2022/01/26 20:11:41;;;;;;;37.03;20.23;;;;;;;-1.67;86.83;101179.00;4975444;28;20220;-78
2022/01/26 20:14:07;;;;;;;30.13;19.60;;;;;;;-1.66;87.01;101183.28;4975679;28;20571;-78
2022/01/26 20:16:34;;;;;;;41.70;23.00;;;;;;;-1.64;87.03;101179.03;4976944;28;20273;-78
2022/01/26 20:19:00;;;;;;;36.25;21.08;;;;;;;-1.63;86.70;101183.31;4984985;28;20227;-78
2022/01/26 20:21:26;;;;;;;41.03;21.17;;;;;;;-1.63;86.76;101173.03;4976410;28;20235;-78
2022/01/26 20:23:51;;;;;;;38.87;20.47;;;;;;;-1.66;86.82;101171.28;4974522;28;21181;-78
2022/01/26 20:26:17;;;;;;;37.27;20.50;;;;;;;-1.66;86.68;101165.25;4982752;28;20986;-78
2022/01/26 20:28:44;;;;;;;40.60;18.13;;;;;;;-1.66;86.89;101158.38;4971647;28;20217;-78
2022/01/26 20:31:19;;;;;;;36.47;22.35;;;;;;;-1.63;86.63;101162.72;4983135;28;20515;-78
2022/01/26 20:33:46;;;;;;;40.65;20.42;;;;;;;-1.63;86.60;101173.03;4973477;28;20228;-78
2022/01/26 20:36:12;;;;;;;29.52;18.75;;;;;;;-1.64;87.04;101163.56;4982214;28;20307;-78
2022/01/26 20:38:39;;;;;;;44.75;20.98;;;;;;;-1.63;86.67;101163.56;4977086;28;20283;-78
2022/01/26 20:41:05;;;;;;;36.30;21.05;;;;;;;-1.66;86.69;101163.53;4980882;28;20598;-78
2022/01/26 20:43:31;;;;;;;40.85;21.85;;;;;;;-1.65;86.73;101160.09;4982273;28;20205;-78
2022/01/26 20:45:57;;;;;;;34.95;18.60;;;;;;;-1.65;86.72;101162.69;4982680;28;20215;-78
2022/01/26 20:48:22;;;;;;;44.23;23.03;;;;;;;-1.67;86.47;101153.22;4979215;28;20228;-78
2022/01/26 20:50:48;;;;;;;39.47;18.57;;;;;;;-1.67;86.93;101151.53;4968304;28;20227;-78
2022/01/26 20:53:13;;;;;;;38.93;19.93;;;;;;;-1.69;86.66;101148.06;4972695;28;20671;-78
2022/01/26 20:55:39;;;;;;;34.30;18.43;;;;;;;-1.67;86.80;101148.09;4984238;28;20203;-78
2022/01/26 20:58:06;;;;;;;40.10;20.92;;;;;;;-1.66;86.84;101155.81;4987667;28;20260;-78
2022/01/26 21:00:31;;;;;;;52.15;23.48;;;;;;;-1.63;86.71;101152.41;4978521;28;20239;-78
2022/01/26 21:02:57;;;;;;;47.60;21.70;;;;;;;-1.60;86.67;101163.59;4984024;28;20209;-78
2022/01/26 21:05:30;;;;;;;46.83;23.97;;;;;;;-1.59;86.70;101157.63;4987698;28;20199;-78
2022/01/26 21:07:57;;;;;;;37.92;19.65;;;;;;;-1.60;86.79;101147.28;4987763;28;20239;-78
2022/01/26 21:10:24;;;;;;;37.38;21.33;;;;;;;-1.61;86.88;101154.16;4987190;28;20212;-78
2022/01/26 21:12:50;;;;;;;35.95;20.00;;;;;;;-1.59;86.69;101157.63;4987666;28;20251;-79
2022/01/26 21:15:17;;;;;;;46.88;21.88;;;;;;;-1.57;86.91;101152.47;4987612;28;20200;-78
2022/01/26 21:17:44;;;;;;;40.90;21.85;;;;;;;-1.56;87.02;101161.94;4987037;28;20228;-78
2022/01/26 21:20:12;;;;;;;35.33;23.00;;;;;;;-1.57;86.87;101168.81;4987247;28;20215;-78
2022/01/26 21:22:38;;;;;;;50.30;26.67;;;;;;;-1.57;86.89;101158.50;4987294;28;20199;-79
2022/01/26 21:25:05;;;;;;;48.07;24.43;;;;;;;-1.62;86.78;101157.59;5024886;23;20250;-82
2022/01/26 21:27:31;;;;;;;52.40;22.35;;;;;;;-1.67;87.06;101154.09;5011810;28;20234;-80
2022/01/26 21:29:56;;;;;;;45.40;21.90;;;;;;;-1.68;87.18;101154.91;5017861;28;20690;-80
2022/01/26 21:32:21;;;;;;;41.50;20.97;;;;;;;-1.70;86.88;101154.06;5016525;28;20202;-80
2022/01/26 21:34:47;;;;;;;44.13;21.07;;;;;;;-1.71;86.95;101152.31;5032619;28;20245;-80
2022/01/26 21:37:13;;;;;;;40.13;19.98;;;;;;;-1.74;86.92;101133.41;5037086;28;20644;-80
2022/01/26 21:39:40;;;;;;;49.33;22.87;;;;;;;-1.78;87.20;101135.09;5044475;28;20200;-82
2022/01/26 21:42:05;;;;;;;44.38;22.55;;;;;;;-1.81;87.08;101135.91;5047040;28;20289;-81
2022/01/26 21:44:31;;;;;;;38.47;20.20;;;;;;;-1.82;87.40;101152.19;5046219;28;20245;-82
2022/01/26 21:46:57;;;;;;;41.13;20.67;;;;;;;-1.81;87.48;101142.75;5044861;28;20226;-82
2022/01/26 21:49:22;;;;;;;47.03;21.17;;;;;;;-1.82;87.28;101148.75;5042099;28;20648;-80
2022/01/26 21:51:48;;;;;;;40.90;20.10;;;;;;;-1.82;87.24;101152.19;5040462;28;20206;-80
2022/01/26 21:54:14;;;;;;;40.43;21.97;;;;;;;-1.81;87.34;101148.78;5039782;28;21158;-80
2022/01/26 21:56:39;;;;;;;51.83;25.17;;;;;;;-1.79;87.19;101151.38;5042395;28;20452;-80
2022/01/26 21:59:05;;;;;;;36.23;21.10;;;;;;;-1.75;87.14;101147.13;5041844;28;20288;-80
2022/01/26 22:01:37;;;;;;;50.55;27.75;;;;;;;-1.71;87.34;101142.00;5025978;28;21214;-80
2022/01/26 22:04:03;;;;;;;47.03;22.20;;;;;;;-1.71;87.38;101146.31;5042254;28;21032;-81
2022/01/26 22:06:29;;;;;;;38.83;21.90;;;;;;;-1.68;87.44;101144.63;5041647;28;20202;-80
2022/01/26 22:08:54;;;;;;;41.70;21.97;;;;;;;-1.68;87.19;101136.88;5037335;28;20229;-83
2022/01/26 22:11:20;;;;;;;47.27;21.77;;;;;;;-1.69;87.19;101142.91;5021425;28;20296;-81
2022/01/26 22:13:46;;;;;;;32.13;19.30;;;;;;;-1.72;87.00;101142.88;5037362;28;20276;-81
2022/01/26 22:16:12;;;;;;;39.58;21.80;;;;;;;-1.76;87.47;101141.09;5041578;28;20206;-81
2022/01/26 22:18:37;;;;;;;44.80;21.20;;;;;;;-1.76;87.08;101141.09;5044746;28;20201;-82
2022/01/26 22:21:03;;;;;;;40.70;19.70;;;;;;;-1.76;87.16;101141.09;5054780;28;20201;-81
2022/01/26 22:23:29;;;;;;;36.15;20.42;;;;;;;-1.75;87.44;101137.69;5053687;28;20246;-81
2022/01/26 22:25:54;;;;;;;47.60;20.83;;;;;;;-1.74;87.13;101144.56;5054468;28;20210;-83
2022/01/26 22:28:25;;;;;;;43.40;22.50;;;;;;;-1.75;87.21;101137.69;5053561;28;20252;-83
2022/01/26 22:30:50;;;;;;;35.43;19.43;;;;;;;-1.76;87.28;101129.94;5054575;28;20486;-81
2022/01/26 22:33:16;;;;;;;38.60;19.17;;;;;;;-1.78;87.55;101127.34;5053174;28;20479;-81
2022/01/26 22:35:41;;;;;;;35.20;19.60;;;;;;;-1.77;87.50;101123.91;5034769;28;20716;-80
2022/01/26 22:38:07;;;;;;;45.67;23.27;;;;;;;-1.78;87.12;101127.34;5056226;28;20225;-81
2022/01/26 22:40:35;;;;;;;45.93;21.40;;;;;;;-1.81;87.45;101112.72;5053824;28;20209;-82
2022/01/26 22:43:01;;;;;;;39.72;20.65;;;;;;;-1.77;87.60;101115.34;5052185;28;20451;-83
2022/01/26 22:45:35;;;;;;;43.17;22.50;;;;;;;-1.79;87.28;101116.16;5037362;28;20288;-82
2022/01/26 22:48:02;;;;;;;43.60;21.35;;;;;;;-1.84;87.30;101111.81;5054457;28;20236;-82
2022/01/26 22:50:29;;;;;;;36.97;20.70;;;;;;;-1.85;87.60;101110.94;5053937;28;20300;-81
2022/01/26 22:52:55;;;;;;;47.53;20.33;;;;;;;-1.83;87.59;101113.56;5056870;28;20201;-82
2022/01/26 22:55:20;;;;;;;40.33;20.50;;;;;;;-1.83;87.70;101114.41;5054669;28;20284;-82
2022/01/26 22:57:46;;;;;;;39.47;19.07;;;;;;;-1.83;87.39;101124.72;5033879;28;20455;-81
2022/01/26 23:00:21;;;;;;;49.90;25.83;;;;;;;-1.78;87.83;101117.06;5050694;28;20483;-81
2022/01/26 23:02:51;;;;;;;52.00;28.90;;;;;;;-1.65;87.72;101103.44;5053491;28;20483;-81
2022/01/26 23:07:43;;;;;;;38.65;19.20;;;;;;;-1.66;87.87;101101.72;5052065;28;20218;-81
2022/01/26 23:10:09;;;;;;;36.67;18.93;;;;;;;-1.68;87.79;101094.81;5053967;28;20206;-81
2022/01/26 23:12:35;;;;;;;41.60;20.50;;;;;;;-1.68;87.51;101103.41;5035314;28;20228;-82
2022/01/26 23:15:00;;;;;;;39.57;19.77;;;;;;;-1.67;87.59;101088.84;5053666;28;20221;-81
2022/01/26 23:17:25;;;;;;;33.30;17.50;;;;;;;-1.68;87.38;101093.09;5024123;28;21164;-78
2022/01/26 23:19:51;;;;;;;28.17;16.13;;;;;;;-1.72;87.24;101088.78;5037177;28;20559;-79
2022/01/26 23:22:17;;;;;;;29.20;18.20;;;;;;;-1.74;86.82;101087.03;5048995;28;20210;-81
2022/01/26 23:24:47;;;;;;;37.90;18.17;;;;;;;-1.72;87.04;101085.34;5054223;28;20610;-82
2022/01/26 23:27:24;;;;;;;34.03;20.15;;;;;;;-1.71;87.02;101079.34;5057790;28;20514;-81
2022/01/26 23:30:04;;;;;;;47.83;25.73;;;;;;;-1.67;86.92;101073.38;5054850;28;20507;-83
2022/01/26 23:33:15;;;;;;;48.83;27.02;;;;;;;-1.59;87.18;101067.44;5047210;28;20485;-80
2022/01/26 23:36:05;;;;;;;32.78;22.13;;;;;;;-1.61;87.40;101066.56;5057999;28;20491;-80
2022/01/26 23:38:19;;;;;;;46.90;20.83;;;;;;;-1.63;87.32;101067.38;5053837;28;20241;-80
2022/01/26 23:41:25;;;;;;;32.75;18.75;;;;;;;-1.63;87.49;101069.97;5059909;28;20233;-81
2022/01/26 23:44:02;;;;;;;34.65;17.70;;;;;;;-1.64;87.24;101069.09;5057403;28;20246;-77
